首页
METAR-TAF:

METAR-TAF

机场 :

麦迪逊, 威斯康辛州, 美国

纬度: 43-08-26N, 经度: 089-20-43W, 海拔: 262米

当前天气观测

该预报发布于18分钟前的01:53 UTC
风速3节,风向东转东北
温度 11°C
湿度 87%
气压 1013 hPa
能見度: 9.7公里
多云层高于2700英尺
多云层高于3700英尺
阴天层高于4600英尺
轻雾

METAR: KMSN 070153Z 07003KT 6SM BR BKN027 BKN037 OVC046 11/09 A2991 RMK AO2 RAB36E49 SLP132 P0000 T01060089 $

时间: 21:11 (02:11 UTC)

预报

该预报发布于2小时和44分钟前的23:27 UTC
预报有效从07日的 00点(UTC)到 07日的 24点(UTC)
风速5节,风向东南
能見度: 10公里
散云层高于1500英尺
阴天层高于2800英尺
附近有阵雨
从 07日的 0500点(UTC)
风速4节,风向东转东南
能見度: 8.0公里
阴天层高于800英尺
轻雾, 附近有阵雨
从 07日的 1200点(UTC)
风速3节,风向南转南东
能見度: 1.6公里
多云层高于400英尺
轻雾
从 07日的 1400点(UTC)
风速3节,风向
能見度: 2.4公里
多云层高于300英尺
轻雾
从 07日的 1600点(UTC)
风速6节,风向
能見度: 10公里
多云层高于700英尺
从 07日的 1800点(UTC)
风速10节,风向西南
能見度: 10公里
散云层高于2800英尺

TAF: KMSN 062327Z 0700/0724 14005KT P6SM VCSH SCT015 OVC028 FM070500 12004KT 5SM BR VCSH OVC008 FM071200 15003KT 1SM BR BKN004 FM071400 18003KT 1 1/2SM BR BKN003 FM071600 19006KT P6SM BKN007 FM071800 22010KT P6SM SCT028

超过4000个机场的气象观测和天气预报(METAR&TAF报告)。

可查询的气象台以黄色和红色小点在地图上表示。

将鼠标移到小点上方,可查看气象台名称。

然后点击查看天气观测和预报。

如需切换地图:点击带黑十字的绿色按钮放大地图;点击带横线的绿色按钮缩小地图;或者点击绿色箭头查看邻近地区的地图。


METAR-TAF: